createdAt,value
2022-12-18T00:02:11.896Z,84.71
2022-12-18T00:04:38.454Z,85.06
2022-12-18T00:07:05.313Z,84.68
2022-12-18T00:09:40.292Z,85.17
2022-12-18T00:14:45.453Z,85.02
2022-12-18T00:17:11.925Z,84.61
2022-12-18T00:19:38.239Z,84.62
2022-12-18T00:22:04.639Z,84.29
2022-12-18T00:24:31.040Z,84.66
2022-12-18T00:26:57.388Z,84.17
2022-12-18T00:29:23.796Z,84.04
2022-12-18T00:31:50.218Z,84.49
2022-12-18T00:34:17.033Z,84.76
2022-12-18T00:36:43.362Z,84.48
2022-12-18T00:39:11.310Z,84.58
2022-12-18T00:41:56.266Z,84.28
2022-12-18T00:44:22.611Z,84.49
2022-12-18T00:46:49.339Z,84.79
2022-12-18T00:49:18.596Z,85.00
2022-12-18T00:51:46.151Z,85.48
2022-12-18T00:54:12.849Z,85.26
2022-12-18T00:56:48.382Z,85.69
2022-12-18T00:59:15.453Z,85.00
2022-12-18T01:01:41.999Z,84.79
2022-12-18T01:04:08.713Z,84.64
2022-12-18T01:06:35.306Z,84.29
2022-12-18T01:09:01.765Z,84.70
2022-12-18T01:11:28.146Z,84.98
2022-12-18T01:13:54.793Z,85.34
2022-12-18T01:16:23.237Z,86.08
2022-12-18T01:18:53.313Z,86.06
2022-12-18T01:21:19.699Z,85.69
2022-12-18T01:23:46.595Z,85.35
2022-12-18T01:26:15.713Z,85.18
2022-12-18T01:28:43.092Z,85.34
2022-12-18T01:31:23.736Z,85.22
2022-12-18T01:33:51.497Z,85.21
2022-12-18T01:36:19.427Z,84.83
2022-12-18T01:38:46.288Z,85.31
2022-12-18T01:41:13.946Z,84.95
2022-12-18T01:43:54.665Z,84.96
2022-12-18T01:46:26.099Z,85.41
2022-12-18T01:49:02.013Z,85.25
2022-12-18T01:51:30.637Z,84.89
2022-12-18T01:53:59.892Z,84.73
2022-12-18T01:56:26.246Z,84.95
2022-12-18T01:59:00.682Z,84.91
2022-12-18T02:01:27.577Z,84.63
2022-12-18T02:03:54.438Z,84.61
2022-12-18T02:06:35.207Z,84.26
2022-12-18T02:09:19.838Z,84.41
2022-12-18T02:11:46.110Z,84.62
2022-12-18T02:14:33.308Z,84.56
2022-12-18T02:17:07.358Z,84.66
2022-12-18T02:20:03.833Z,84.54
2022-12-18T02:23:05.682Z,84.55
2022-12-18T02:25:58.821Z,84.69
2022-12-18T02:28:30.438Z,84.97
2022-12-18T02:31:03.673Z,84.82
2022-12-18T02:33:31.799Z,83.97
2022-12-18T02:36:00.827Z,84.22
2022-12-18T02:38:29.724Z,84.48
2022-12-18T02:41:00.426Z,84.20
2022-12-18T02:43:27.220Z,84.21
2022-12-18T02:45:59.084Z,84.13
2022-12-18T02:48:34.804Z,84.24
2022-12-18T02:51:29.891Z,84.08
2022-12-18T02:54:38.548Z,84.14
2022-12-18T02:57:37.637Z,84.08
2022-12-18T03:00:04.118Z,83.94
2022-12-18T03:02:40.013Z,84.10
2022-12-18T03:05:18.743Z,83.78
2022-12-18T03:07:54.213Z,83.89
2022-12-18T03:10:27.680Z,84.18
2022-12-18T03:13:14.671Z,84.04
2022-12-18T03:15:48.650Z,83.88
2022-12-18T03:18:35.159Z,84.68
2022-12-18T03:21:06.143Z,83.84
2022-12-18T03:23:41.387Z,83.95
2022-12-18T03:26:12.334Z,83.80
2022-12-18T03:28:49.666Z,84.29
2022-12-18T03:31:18.468Z,84.36
2022-12-18T03:33:52.028Z,84.31
2022-12-18T03:36:18.820Z,84.67
2022-12-18T03:38:45.232Z,84.98
2022-12-18T03:41:29.424Z,84.86
2022-12-18T03:44:24.719Z,85.11
2022-12-18T03:47:04.767Z,84.58
2022-12-18T03:49:39.547Z,84.57
2022-12-18T03:52:13.482Z,84.85
2022-12-18T03:54:44.310Z,85.05
2022-12-18T03:57:20.577Z,85.27
2022-12-18T03:59:53.087Z,84.90
2022-12-18T04:02:24.354Z,85.20
2022-12-18T04:04:54.322Z,85.04
2022-12-18T04:07:22.939Z,84.74
2022-12-18T04:09:51.091Z,84.85
2022-12-18T04:12:18.250Z,84.70
2022-12-18T04:14:46.260Z,84.82
2022-12-18T04:17:13.388Z,84.91
2022-12-18T04:19:39.796Z,84.77
2022-12-18T04:22:11.054Z,85.03
2022-12-18T04:24:42.486Z,84.45
2022-12-18T04:27:15.746Z,84.49
2022-12-18T04:29:47.288Z,84.68
2022-12-18T04:32:14.741Z,84.50
2022-12-18T04:34:43.338Z,84.91
2022-12-18T04:37:09.756Z,84.85
2022-12-18T04:39:36.659Z,84.56
2022-12-18T04:42:08.325Z,85.02
2022-12-18T04:44:35.147Z,84.53
2022-12-18T04:47:01.466Z,84.21
2022-12-18T04:49:27.818Z,84.16
2022-12-18T04:51:54.403Z,85.04
2022-12-18T04:54:21.531Z,85.34
2022-12-18T04:56:47.860Z,85.34
2022-12-18T04:59:14.456Z,84.98
2022-12-18T05:01:40.885Z,85.01
2022-12-18T05:04:07.679Z,84.42
2022-12-18T05:06:34.326Z,84.92
2022-12-18T05:09:00.652Z,84.54
2022-12-18T05:11:26.980Z,84.63
2022-12-18T05:13:53.312Z,84.44
2022-12-18T05:16:19.650Z,84.57
2022-12-18T05:18:46.098Z,83.99
2022-12-18T05:21:12.671Z,84.45
2022-12-18T05:23:39.449Z,84.83
2022-12-18T05:26:07.169Z,83.92
2022-12-18T05:28:35.632Z,84.02
2022-12-18T05:31:03.924Z,84.54
2022-12-18T05:33:33.059Z,84.09
2022-12-18T05:36:01.987Z,84.35
2022-12-18T05:38:29.928Z,83.83
2022-12-18T05:40:57.163Z,83.99
2022-12-18T05:43:24.366Z,84.23
2022-12-18T05:45:51.807Z,83.57
2022-12-18T05:48:18.546Z,83.95
2022-12-18T05:50:46.586Z,83.94
2022-12-18T05:53:15.186Z,83.93
2022-12-18T05:55:42.671Z,84.24
2022-12-18T05:58:10.852Z,84.22
2022-12-18T06:00:41.766Z,83.49
2022-12-18T06:03:09.589Z,83.30
2022-12-18T06:05:38.815Z,83.62
2022-12-18T06:08:05.484Z,83.15
2022-12-18T06:10:32.145Z,83.45
2022-12-18T06:12:58.587Z,83.47
2022-12-18T06:15:25.370Z,83.62
2022-12-18T06:17:51.720Z,83.73
2022-12-18T06:20:18.155Z,83.04
2022-12-18T06:22:44.505Z,83.81
2022-12-18T06:25:10.917Z,83.86
2022-12-18T06:27:37.230Z,83.25
2022-12-18T06:30:04.802Z,83.25
2022-12-18T06:32:31.480Z,83.49
2022-12-18T06:34:57.840Z,83.48
2022-12-18T06:37:27.191Z,83.24
2022-12-18T06:39:54.414Z,83.03
2022-12-18T06:42:20.724Z,83.53
2022-12-18T06:44:47.014Z,83.60
2022-12-18T06:47:13.336Z,82.95
2022-12-18T06:49:39.647Z,83.39
2022-12-18T06:52:05.976Z,83.17
2022-12-18T06:54:32.327Z,83.27
2022-12-18T06:56:58.649Z,83.77
2022-12-18T06:59:25.261Z,83.85
2022-12-18T07:01:52.513Z,83.67
2022-12-18T07:04:18.959Z,83.31
2022-12-18T07:06:45.284Z,83.61
2022-12-18T07:09:11.627Z,83.08
2022-12-18T07:11:37.952Z,83.30
2022-12-18T07:14:04.330Z,83.67
2022-12-18T07:16:30.704Z,83.51
2022-12-18T07:18:57.402Z,83.29
2022-12-18T07:21:24.890Z,83.70
2022-12-18T07:23:51.776Z,84.13
2022-12-18T07:26:21.301Z,84.12
2022-12-18T07:28:48.147Z,83.77
2022-12-18T07:31:20.303Z,84.00
2022-12-18T07:33:48.250Z,84.05
2022-12-18T07:36:15.035Z,84.15
2022-12-18T07:38:41.466Z,83.92
2022-12-18T07:41:13.417Z,84.65
2022-12-18T07:43:41.936Z,84.59
2022-12-18T07:46:10.169Z,83.99
2022-12-18T07:48:36.651Z,84.29
2022-12-18T07:51:05.365Z,84.54
2022-12-18T07:53:32.795Z,84.10
2022-12-18T07:56:26.027Z,84.46
2022-12-18T07:58:47.327Z,84.01
2022-12-18T08:01:15.014Z,84.00
2022-12-18T08:03:42.234Z,84.19
2022-12-18T08:06:10.756Z,83.38
2022-12-18T08:08:37.426Z,83.93
2022-12-18T08:11:04.179Z,84.04
2022-12-18T08:13:30.526Z,83.97
2022-12-18T08:15:57.836Z,83.93
2022-12-18T08:18:24.264Z,84.38
2022-12-18T08:20:50.616Z,83.87
2022-12-18T08:23:16.959Z,84.45
2022-12-18T08:25:43.296Z,85.11
2022-12-18T08:28:09.608Z,84.66
2022-12-18T08:30:36.774Z,85.80
2022-12-18T08:33:04.090Z,86.71
2022-12-18T08:35:35.856Z,87.29
2022-12-18T08:38:04.193Z,86.85
2022-12-18T08:40:30.584Z,88.64
2022-12-18T08:43:15.383Z,87.08
2022-12-18T08:45:41.781Z,87.89
2022-12-18T08:48:08.152Z,87.44
2022-12-18T08:50:34.528Z,88.29
2022-12-18T08:53:01.372Z,86.78
2022-12-18T08:55:27.699Z,87.76
2022-12-18T08:57:53.999Z,88.29
2022-12-18T09:00:20.883Z,86.69
2022-12-18T09:02:47.301Z,87.20
2022-12-18T09:05:13.934Z,87.23
2022-12-18T09:07:40.520Z,86.44
2022-12-18T09:10:07.311Z,86.80
2022-12-18T09:12:33.678Z,86.00
2022-12-18T09:14:59.979Z,85.84
2022-12-18T09:17:26.350Z,86.10
2022-12-18T09:19:52.712Z,85.03
2022-12-18T09:22:19.028Z,84.46
2022-12-18T09:24:45.335Z,84.86
2022-12-18T09:27:11.670Z,84.54
2022-12-18T09:29:37.990Z,85.38
2022-12-18T09:32:04.579Z,84.30
2022-12-18T09:34:30.973Z,83.74
2022-12-18T09:36:57.275Z,83.78
2022-12-18T09:39:24.327Z,83.44
2022-12-18T09:41:58.903Z,83.86
2022-12-18T09:44:31.745Z,83.62
2022-12-18T09:47:13.223Z,83.04
2022-12-18T09:49:49.012Z,82.77
2022-12-18T09:52:22.407Z,82.74
2022-12-18T09:55:02.807Z,83.14
2022-12-18T09:57:34.147Z,83.24
2022-12-18T10:00:10.730Z,83.41
2022-12-18T10:02:41.570Z,81.83
2022-12-18T10:05:13.074Z,81.35
2022-12-18T10:08:03.437Z,81.50
2022-12-18T10:10:47.483Z,81.35
2022-12-18T10:13:17.910Z,81.31
2022-12-18T10:16:02.999Z,80.64
2022-12-18T10:19:03.172Z,81.73
2022-12-18T10:21:35.540Z,81.38
2022-12-18T10:24:27.618Z,79.96
2022-12-18T10:27:00.556Z,80.41
2022-12-18T10:29:27.094Z,78.12
2022-12-18T10:31:53.392Z,78.24
2022-12-18T10:34:19.712Z,77.71
2022-12-18T10:36:48.404Z,77.95
2022-12-18T10:39:17.605Z,77.97
2022-12-18T10:41:44.055Z,77.45
2022-12-18T10:44:25.240Z,77.55
2022-12-18T10:46:56.834Z,77.12
2022-12-18T10:49:29.615Z,76.38
2022-12-18T10:52:19.367Z,76.95
2022-12-18T10:55:04.136Z,75.72
2022-12-18T10:57:34.032Z,75.19
2022-12-18T11:00:22.101Z,75.71
2022-12-18T11:02:48.634Z,75.39
2022-12-18T11:05:31.710Z,75.67
2022-12-18T11:07:59.679Z,75.39
2022-12-18T11:10:34.518Z,75.70
2022-12-18T11:13:31.147Z,74.44
2022-12-18T11:15:58.343Z,75.01
2022-12-18T11:18:32.418Z,74.16
2022-12-18T11:21:07.075Z,73.32
2022-12-18T11:23:35.035Z,73.32
2022-12-18T11:26:06.819Z,73.01
2022-12-18T11:28:39.614Z,72.98
2022-12-18T11:31:17.349Z,72.93
2022-12-18T11:34:26.740Z,72.70
2022-12-18T11:36:45.730Z,73.07
2022-12-18T11:39:39.574Z,73.13
2022-12-18T11:42:16.937Z,72.67
2022-12-18T11:44:49.476Z,72.79
2022-12-18T11:47:39.897Z,73.70
2022-12-18T11:50:15.405Z,73.09
2022-12-18T11:52:42.859Z,73.21
2022-12-18T11:55:44.809Z,72.93
2022-12-18T11:58:35.134Z,72.92
2022-12-18T12:01:25.843Z,73.46
2022-12-18T12:04:09.716Z,73.61
2022-12-18T12:06:56.476Z,72.95
2022-12-18T12:09:44.458Z,73.20
2022-12-18T12:12:26.840Z,73.00
2022-12-18T12:15:04.707Z,72.75
2022-12-18T12:18:11.270Z,73.25
2022-12-18T12:20:40.882Z,71.62
2022-12-18T12:23:27.963Z,72.48
2022-12-18T12:26:06.025Z,71.81
2022-12-18T12:28:53.794Z,70.98
2022-12-18T12:31:40.490Z,71.85
2022-12-18T12:34:35.718Z,71.58
2022-12-18T12:37:25.115Z,71.77
2022-12-18T12:39:53.966Z,71.09
2022-12-18T12:42:54.708Z,71.12
2022-12-18T12:45:32.331Z,70.93
2022-12-18T12:48:00.530Z,69.92
2022-12-18T12:50:27.159Z,71.33
2022-12-18T12:52:58.195Z,71.25
2022-12-18T12:55:27.640Z,71.20
2022-12-18T12:58:19.121Z,72.10
2022-12-18T13:01:11.788Z,71.48
2022-12-18T13:03:52.461Z,71.53
2022-12-18T13:07:00.932Z,71.16
2022-12-18T13:09:31.431Z,71.40
2022-12-18T13:12:24.179Z,70.77
2022-12-18T13:14:50.615Z,72.01
2022-12-18T13:17:20.732Z,71.23
2022-12-18T13:19:51.986Z,71.55
2022-12-18T13:22:29.760Z,71.74
2022-12-18T13:24:56.151Z,71.23
2022-12-18T13:27:45.195Z,72.64
2022-12-18T13:30:34.476Z,71.99
2022-12-18T13:33:20.485Z,73.04
2022-12-18T13:35:46.862Z,72.79
2022-12-18T13:38:35.854Z,72.28
2022-12-18T13:41:23.941Z,72.12
2022-12-18T13:43:53.171Z,72.34
2022-12-18T13:46:27.989Z,73.69
2022-12-18T13:49:15.041Z,73.22
2022-12-18T13:51:45.210Z,72.76
2022-12-18T13:54:33.835Z,72.93
2022-12-18T13:57:00.593Z,71.90
2022-12-18T13:59:38.067Z,72.42
2022-12-18T14:02:15.763Z,71.96
2022-12-18T14:04:42.704Z,72.74
2022-12-18T14:07:14.912Z,71.48
2022-12-18T14:09:44.450Z,70.75
2022-12-18T14:12:43.906Z,70.88
2022-12-18T14:15:26.907Z,70.19
2022-12-18T14:18:10.578Z,69.79
2022-12-18T14:20:40.972Z,68.71
2022-12-18T14:23:27.638Z,68.24
2022-12-18T14:25:53.991Z,67.49
2022-12-18T14:28:22.587Z,67.14
2022-12-18T14:30:49.435Z,66.49
2022-12-18T14:33:20.111Z,66.78
2022-12-18T14:36:01.741Z,65.56
2022-12-18T14:38:33.372Z,66.02
2022-12-18T14:41:03.146Z,65.17
2022-12-18T14:43:33.115Z,63.52
2022-12-18T14:46:00.392Z,63.01
2022-12-18T14:48:41.942Z,61.17
2022-12-18T14:51:18.694Z,59.20
2022-12-18T14:53:55.473Z,60.45
2022-12-18T14:56:22.123Z,60.54
2022-12-18T14:58:56.421Z,59.48
2022-12-18T15:01:29.109Z,60.24
2022-12-18T15:03:57.501Z,58.65
2022-12-18T15:06:30.422Z,59.09
2022-12-18T15:08:57.821Z,59.68
2022-12-18T15:11:45.323Z,57.63
2022-12-18T15:14:38.506Z,58.60
2022-12-18T15:17:15.348Z,59.01
2022-12-18T15:19:44.286Z,58.86
2022-12-18T15:22:28.064Z,58.64
2022-12-18T15:24:56.078Z,58.51
2022-12-18T15:27:30.065Z,58.23
2022-12-18T15:30:11.361Z,58.04
2022-12-18T15:32:39.457Z,57.33
2022-12-18T15:35:11.813Z,58.57
2022-12-18T15:37:40.125Z,57.17
2022-12-18T15:40:12.679Z,57.34
2022-12-18T15:42:57.658Z,56.78
2022-12-18T15:45:24.322Z,56.20
2022-12-18T15:47:50.810Z,58.21
2022-12-18T15:50:17.159Z,56.22
2022-12-18T15:52:48.432Z,55.35
2022-12-18T15:55:41.948Z,57.07
2022-12-18T15:58:10.848Z,57.17
2022-12-18T16:00:40.038Z,56.73
2022-12-18T16:03:06.893Z,57.33
2022-12-18T16:05:34.058Z,57.88
2022-12-18T16:08:00.466Z,57.89
2022-12-18T16:10:28.227Z,57.10
2022-12-18T16:12:54.707Z,58.04
2022-12-18T16:15:24.816Z,57.24
2022-12-18T16:17:52.578Z,57.62
2022-12-18T16:20:22.254Z,58.32
2022-12-18T16:22:49.613Z,57.77
2022-12-18T16:25:25.146Z,58.60
2022-12-18T16:27:52.216Z,58.34
2022-12-18T16:30:21.483Z,58.25
2022-12-18T16:32:48.006Z,58.54
2022-12-18T16:35:16.112Z,59.01
2022-12-18T16:37:43.448Z,58.95
2022-12-18T16:40:12.587Z,60.11
2022-12-18T16:42:41.122Z,59.12
2022-12-18T16:45:09.766Z,59.81
2022-12-18T16:47:36.455Z,60.83
2022-12-18T16:50:03.969Z,60.78
2022-12-18T16:52:30.492Z,60.50
2022-12-18T16:54:57.033Z,60.74
2022-12-18T16:57:25.370Z,61.14
2022-12-18T16:59:52.510Z,62.82
2022-12-18T17:02:23.987Z,62.03
2022-12-18T17:04:54.001Z,62.51
2022-12-18T17:07:20.519Z,62.21
2022-12-18T17:09:47.015Z,63.60
2022-12-18T17:12:13.534Z,62.39
2022-12-18T17:14:40.029Z,63.39
2022-12-18T17:17:20.935Z,63.97
2022-12-18T17:19:48.225Z,63.52
2022-12-18T17:22:14.692Z,63.83
2022-12-18T17:24:41.551Z,64.72
2022-12-18T17:27:08.795Z,64.23
2022-12-18T17:29:35.251Z,65.80
2022-12-18T17:32:01.710Z,65.94
2022-12-18T17:34:28.694Z,64.45
2022-12-18T17:36:56.387Z,64.78
2022-12-18T17:39:22.771Z,65.44
2022-12-18T17:41:49.946Z,65.57
2022-12-18T17:44:17.179Z,65.80
2022-12-18T17:46:44.017Z,65.42
2022-12-18T17:49:11.404Z,65.21
2022-12-18T17:51:38.849Z,65.28
2022-12-18T17:54:06.345Z,66.32
2022-12-18T17:56:32.950Z,65.95
2022-12-18T17:59:00.022Z,65.07
2022-12-18T18:01:26.680Z,66.11
2022-12-18T18:03:55.992Z,65.39
2022-12-18T18:06:23.811Z,65.01
2022-12-18T18:08:51.194Z,64.88
2022-12-18T18:11:39.414Z,66.09
2022-12-18T18:14:12.363Z,65.58
2022-12-18T18:16:43.957Z,64.74
2022-12-18T18:19:13.843Z,65.05
2022-12-18T18:21:42.239Z,64.63
2022-12-18T18:24:10.864Z,63.91
2022-12-18T18:26:38.284Z,64.14
2022-12-18T18:29:07.081Z,64.59
2022-12-18T18:31:38.213Z,62.92
2022-12-18T18:34:08.493Z,63.50
2022-12-18T18:36:34.982Z,64.35
2022-12-18T18:39:02.084Z,64.38
2022-12-18T18:41:29.898Z,63.60
2022-12-18T18:43:57.802Z,63.58
2022-12-18T18:46:25.262Z,63.57
2022-12-18T18:48:51.882Z,63.68
2022-12-18T18:51:21.074Z,63.58
2022-12-18T18:53:49.896Z,64.66
2022-12-18T18:56:50.222Z,64.18
2022-12-18T18:59:06.215Z,64.08
2022-12-18T19:01:33.046Z,63.73
2022-12-18T19:04:00.953Z,65.09
2022-12-18T19:06:28.615Z,65.51
2022-12-18T19:08:57.423Z,63.95
2022-12-18T19:11:44.198Z,64.29
2022-12-18T19:14:12.818Z,64.12
2022-12-18T19:16:40.204Z,64.26
2022-12-18T19:19:07.557Z,65.38
2022-12-18T19:21:35.190Z,63.87
2022-12-18T19:24:02.443Z,64.40
2022-12-18T19:26:29.260Z,65.19
2022-12-18T19:29:04.434Z,63.81
2022-12-18T19:31:35.550Z,64.99
2022-12-18T19:34:03.829Z,65.20
2022-12-18T19:36:31.393Z,64.58
2022-12-18T19:39:00.239Z,64.51
2022-12-18T19:41:29.167Z,63.48
2022-12-18T19:43:58.368Z,63.49
2022-12-18T19:46:27.343Z,63.81
2022-12-18T19:48:53.868Z,63.83
2022-12-18T19:51:23.919Z,64.48
2022-12-18T19:53:56.433Z,63.24
2022-12-18T19:56:26.674Z,63.93
2022-12-18T19:58:54.219Z,64.13
2022-12-18T20:01:22.850Z,63.26
2022-12-18T20:03:52.585Z,64.46
2022-12-18T20:06:32.971Z,64.31
2022-12-18T20:09:05.911Z,63.76
2022-12-18T20:11:33.674Z,63.96
2022-12-18T20:14:02.210Z,62.66
2022-12-18T20:16:29.358Z,63.97
2022-12-18T20:18:56.964Z,63.83
2022-12-18T20:21:25.247Z,63.69
2022-12-18T20:23:52.094Z,63.41
2022-12-18T20:26:19.271Z,63.33
2022-12-18T20:28:45.658Z,63.03
2022-12-18T20:31:13.580Z,63.37
2022-12-18T20:33:41.423Z,63.52
2022-12-18T20:36:13.069Z,63.75
2022-12-18T20:38:41.381Z,64.14
2022-12-18T20:41:16.261Z,64.69
2022-12-18T20:43:43.830Z,65.25
2022-12-18T20:46:13.488Z,66.03
2022-12-18T20:48:40.256Z,66.48
2022-12-18T20:51:18.340Z,66.16
2022-12-18T20:53:45.744Z,66.94
2022-12-18T20:56:19.635Z,67.16
2022-12-18T20:58:49.360Z,66.40
2022-12-18T21:01:18.820Z,67.89
2022-12-18T21:03:46.152Z,67.71
2022-12-18T21:06:14.176Z,67.59
2022-12-18T21:08:42.900Z,69.58
2022-12-18T21:11:35.053Z,70.82
2022-12-18T21:14:03.146Z,70.14
2022-12-18T21:16:29.740Z,71.30
2022-12-18T21:18:56.135Z,71.23
2022-12-18T21:21:26.597Z,72.91
2022-12-18T21:23:53.680Z,73.22
2022-12-18T21:26:22.573Z,73.93
2022-12-18T21:28:57.201Z,74.48
2022-12-18T21:31:26.909Z,76.25
2022-12-18T21:33:56.475Z,76.36
2022-12-18T21:36:28.996Z,76.38
2022-12-18T21:38:57.639Z,76.30
2022-12-18T21:41:44.211Z,77.02
2022-12-18T21:44:12.820Z,77.54
2022-12-18T21:46:44.481Z,77.24
2022-12-18T21:49:14.381Z,77.54
2022-12-18T21:51:41.234Z,78.00
2022-12-18T21:54:07.646Z,78.86
2022-12-18T21:56:53.065Z,79.33
2022-12-18T21:59:39.878Z,78.14
2022-12-18T22:02:10.489Z,80.59
2022-12-18T22:04:45.915Z,81.00
2022-12-18T22:07:13.763Z,80.65
2022-12-18T22:09:40.447Z,81.21
2022-12-18T22:12:08.887Z,80.67
2022-12-18T22:14:35.898Z,80.75
2022-12-18T22:17:03.057Z,81.38
2022-12-18T22:19:30.304Z,82.34
2022-12-18T22:21:56.674Z,81.44
2022-12-18T22:24:25.672Z,82.24
2022-12-18T22:26:54.186Z,81.30
2022-12-18T22:29:46.877Z,81.12
2022-12-18T22:32:16.845Z,80.75
2022-12-18T22:34:46.765Z,81.03
2022-12-18T22:37:13.201Z,80.72
2022-12-18T22:39:39.991Z,81.85
2022-12-18T22:42:07.425Z,80.67
2022-12-18T22:44:33.849Z,81.08
2022-12-18T22:47:06.218Z,80.51
2022-12-18T22:49:35.087Z,81.54
2022-12-18T22:52:02.533Z,81.05
2022-12-18T22:54:28.921Z,80.87
2022-12-18T22:56:55.559Z,80.64
2022-12-18T22:59:23.212Z,81.21
2022-12-18T23:01:51.450Z,81.19
2022-12-18T23:04:28.465Z,82.16
2022-12-18T23:07:01.486Z,81.68
2022-12-18T23:09:28.435Z,80.94
2022-12-18T23:11:54.848Z,80.88
2022-12-18T23:14:21.191Z,81.40
2022-12-18T23:16:47.646Z,82.22
2022-12-18T23:19:16.268Z,81.78
2022-12-18T23:21:42.699Z,82.64
2022-12-18T23:24:09.247Z,82.26
2022-12-18T23:26:35.704Z,82.89
2022-12-18T23:29:03.441Z,82.53
2022-12-18T23:31:35.285Z,83.56
2022-12-18T23:34:03.099Z,84.28
2022-12-18T23:36:29.837Z,83.50
2022-12-18T23:39:00.974Z,83.59
2022-12-18T23:41:32.541Z,84.39
2022-12-18T23:44:00.306Z,84.18
2022-12-18T23:46:29.543Z,85.21
2022-12-18T23:48:58.565Z,85.72
2022-12-18T23:51:25.779Z,84.60
2022-12-18T23:53:53.950Z,85.98
2022-12-18T23:56:20.959Z,84.61
2022-12-18T23:58:48.543Z,85.54
